PADL

Dillingham Airport

Airport
ICAO code
PADL
Summary
ICAO Region
NAM
ICAO Territory
Location

Dillingham,

Coordinates
59° 2' 44" N , 158° 30' 14" W
KCC
Airport BS
Bird Strike
Non Avian Wildlife Hazards to Aircraft
Airport CFIT
Altimeter Temperature Error Correction
Metar
PADL 210456Z 02007KT 7SM -RA OVC015 03/02 A2975 RMK AO2 SLP077 P0002 T00280017

Description

Regional airport serving Dillingham, Alaska.

Climatology

Subarctic climate (Köppen climate classification Dfc) - long, usually very cold winters, and short, cool to mild summers.

Runways

Designator Length Width Surface Rops
1/19 1951 46 ASP Yes/Yes

Airport map

Aerial View

SKYbrary Partners:

Safety knowledge contributed by: